Time;durP1;ratioP1;P1;durP2;ratioP2;P2;SDS_P1;SDS_P2;PMS_P1;PMS_P2;Temp;Humidity;BMP_temperature;BMP_pressure;BME280_temperature;BME280_humidity;BME280_pressure;Samples;Min_cycle;Max_cycle;Signal;HPM_P1;HPM_P2
2022/02/06 00:00:01;;;;;;;25.08;14.40;;;128.00;2252.80;;;;;;5074466;28;20025;-72
2022/02/06 00:02:34;;;;;;;29.38;16.85;;;128.00;2252.80;;;;;;5075523;28;20047;-73
2022/02/06 00:05:00;;;;;;;26.48;16.42;;;128.00;2252.80;;;;;;5078479;28;20475;-72
2022/02/06 00:07:26;;;;;;;28.27;17.67;;;103.20;2227.20;;;;;;5076798;28;20528;-72
2022/02/06 00:09:52;;;;;;;34.25;18.13;;;103.20;2227.20;;;;;;5077901;28;20040;-73
2022/02/06 00:12:18;;;;;;;29.38;17.90;;;103.10;2227.20;;;;;;5075529;28;21033;-72
2022/02/06 00:14:44;;;;;;;26.45;16.55;;;103.10;2227.20;;;;;;5073469;28;20016;-72
2022/02/06 00:17:10;;;;;;;31.25;17.98;;;103.00;2227.20;;;;;;5076729;28;20055;-72
2022/02/06 00:19:42;;;;;;;28.42;18.67;;;103.00;2227.20;;;;;;5080006;28;20032;-72
2022/02/06 00:22:10;;;;;;;34.00;20.02;;;103.00;2227.20;;;;;;5076597;28;20050;-72
2022/02/06 00:25:13;;;;;;;33.78;18.55;;;103.00;2227.20;;;;;;5074140;28;20102;-72
2022/02/06 00:27:35;;;;;;;32.38;18.27;;;103.00;2227.20;;;;;;5074253;28;20049;-71
2022/02/06 00:30:14;;;;;;;36.38;18.95;;;102.90;2227.20;;;;;;5071666;28;20081;-72
2022/02/06 00:32:46;;;;;;;34.38;18.38;;;102.90;2227.20;;;;;;5074692;28;20031;-72
2022/02/06 00:43:21;;;;;;;31.42;18.42;;;102.90;2227.20;;;;;;5069277;28;20017;-72
2022/02/06 00:45:47;;;;;;;38.95;21.02;;;102.80;2227.20;;;;;;5069061;28;20387;-72
2022/02/06 00:48:18;;;;;;;35.97;20.45;;;102.70;2227.20;;;;;;5070032;28;20016;-71
2022/02/06 00:50:47;;;;;;;30.58;19.02;;;102.70;2227.20;;;;;;5071720;28;20070;-71
2022/02/06 00:53:17;;;;;;;31.05;18.45;;;102.60;2227.20;;;;;;5071595;28;20012;-71
2022/02/06 00:55:44;;;;;;;28.85;18.48;;;102.60;2227.20;;;;;;5070535;28;20554;-72
2022/02/06 00:58:10;;;;;;;36.88;18.52;;;102.60;2227.20;;;;;;5069754;28;20059;-71
2022/02/06 01:00:36;;;;;;;31.23;18.88;;;102.60;2227.20;;;;;;5071964;28;20383;-72
2022/02/06 01:03:02;;;;;;;26.73;15.90;;;102.60;2227.20;;;;;;5071416;28;20760;-73
2022/02/06 01:05:27;;;;;;;30.30;18.33;;;102.50;2227.20;;;;;;5069726;28;20035;-72
2022/02/06 01:07:54;;;;;;;30.65;16.17;;;102.50;2227.20;;;;;;5068461;28;20059;-72
2022/02/06 01:10:23;;;;;;;30.83;16.52;;;102.50;2227.20;;;;;;5071091;28;20043;-72
2022/02/06 01:12:55;;;;;;;28.30;16.85;;;102.60;2227.20;;;;;;5070109;28;20020;-72
2022/02/06 01:15:26;;;;;;;27.85;17.42;;;102.60;2227.20;;;;;;5063792;28;20024;-74
2022/02/06 01:17:58;;;;;;;29.42;17.85;;;102.60;2227.20;;;;;;5066847;28;20016;-72
2022/02/06 01:20:35;;;;;;;30.98;18.80;;;102.50;2227.20;;;;;;5070697;28;20032;-72
2022/02/06 01:23:07;;;;;;;36.60;18.33;;;102.50;2227.20;;;;;;5069405;28;20060;-72
2022/02/06 01:25:46;;;;;;;34.10;19.40;;;102.40;2227.20;;;;;;5068866;28;20052;-72
2022/02/06 01:28:16;;;;;;;53.88;30.35;;;102.40;2227.20;;;;;;5071255;28;20032;-72
2022/02/06 01:30:58;;;;;;;36.80;22.80;;;102.40;2227.20;;;;;;5070367;28;20121;-72
2022/02/06 01:33:31;;;;;;;35.83;20.17;;;77.60;2227.20;;;;;;5067540;28;20472;-72
2022/02/06 01:38:58;;;;;;;32.67;20.38;;;77.60;2227.20;;;;;;5069862;28;20024;-72
2022/02/06 01:41:24;;;;;;;33.63;20.88;;;77.60;2227.20;;;;;;5070987;28;20044;-73
2022/02/06 01:44:05;;;;;;;34.25;19.60;;;77.50;2227.20;;;;;;5067866;28;20029;-73
2022/02/06 02:47:50;;;;;;;39.38;22.85;;;77.20;2227.20;;;;;;5074164;28;20081;-72
2022/02/06 02:50:23;;;;;;;42.10;26.23;;;77.10;2227.20;;;;;;5065172;28;20029;-72
2022/02/06 02:58:58;;;;;;;35.67;20.58;;;76.80;2227.20;;;;;;5074637;28;20089;-71
2022/02/06 03:01:13;;;;;;;37.80;21.98;;;76.90;2227.20;;;;;;5068221;28;20028;-71
2022/02/06 03:03:41;;;;;;;40.60;22.20;;;76.80;2227.20;;;;;;5074201;28;20527;-72
2022/02/06 03:06:08;;;;;;;40.15;22.45;;;52.10;2227.20;;;;;;5072929;28;20036;-72
2022/02/06 03:08:36;;;;;;;42.22;23.02;;;52.00;2227.20;;;;;;5073122;28;20379;-72
2022/02/06 03:11:08;;;;;;;51.95;24.88;;;51.90;2227.20;;;;;;5074296;28;20020;-72
2022/02/06 03:16:06;;;;;;;47.97;24.55;;;51.80;2227.20;;;;;;5074335;28;20024;-72
2022/02/06 03:18:42;;;;;;;45.53;21.92;;;51.80;2227.20;;;;;;5073879;28;20055;-72
2022/02/06 03:21:10;;;;;;;42.97;22.65;;;51.80;2227.20;;;;;;5074084;28;20021;-72
2022/02/06 03:23:39;;;;;;;35.13;20.55;;;51.80;2227.20;;;;;;5073076;28;20024;-73
2022/02/06 03:26:05;;;;;;;39.20;23.15;;;51.70;2227.20;;;;;;5072334;28;20076;-73
2022/02/06 03:28:31;;;;;;;34.92;20.55;;;51.70;2227.20;;;;;;5074074;28;20063;-72
2022/02/06 03:30:56;;;;;;;35.85;21.15;;;51.70;2227.20;;;;;;5073850;28;20046;-72
2022/02/06 03:33:22;;;;;;;35.90;19.10;;;51.70;2227.20;;;;;;5073862;28;20016;-72
2022/02/06 03:35:48;;;;;;;32.88;19.58;;;51.70;2227.20;;;;;;5072421;28;20498;-72
2022/02/06 03:38:14;;;;;;;33.92;19.60;;;51.70;2227.20;;;;;;5073922;28;20107;-72
2022/02/06 03:40:48;;;;;;;36.53;18.92;;;51.70;2227.20;;;;;;5073635;28;20024;-72
2022/02/06 03:43:20;;;;;;;34.65;20.50;;;51.70;2227.20;;;;;;5073698;28;20024;-73
2022/02/06 03:45:53;;;;;;;33.90;20.30;;;51.70;2227.20;;;;;;5073437;28;20044;-72
2022/02/06 03:48:23;;;;;;;33.72;19.88;;;51.70;2227.20;;;;;;5073251;28;20061;-72
2022/02/06 03:50:51;;;;;;;36.55;20.98;;;51.60;2227.20;;;;;;5073470;28;20024;-72
2022/02/06 03:53:22;;;;;;;36.58;19.60;;;51.60;2227.20;;;;;;5073149;28;20020;-72
2022/02/06 03:55:49;;;;;;;39.42;18.45;;;51.70;2227.20;;;;;;5073063;28;20154;-71
2022/02/06 03:58:15;;;;;;;30.63;19.77;;;51.70;2227.20;;;;;;5073001;28;20020;-71
2022/02/06 04:00:41;;;;;;;28.15;17.48;;;51.60;2227.20;;;;;;5071942;28;20078;-72
2022/02/06 04:03:07;;;;;;;34.10;20.60;;;51.60;2227.20;;;;;;5072105;28;20052;-72
2022/02/06 04:05:32;;;;;;;38.25;21.45;;;51.50;2227.20;;;;;;5071904;28;20082;-72
2022/02/06 04:07:58;;;;;;;36.45;21.48;;;51.40;2227.20;;;;;;5071468;28;20024;-71
2022/02/06 04:10:32;;;;;;;37.33;22.13;;;51.40;2227.20;;;;;;5072620;28;20035;-72
2022/02/06 04:13:00;;;;;;;36.28;21.88;;;51.40;2227.20;;;;;;5071778;28;20020;-72
2022/02/06 04:15:36;;;;;;;27.70;17.63;;;51.40;2227.20;;;;;;5072646;28;20030;-71
2022/02/06 04:18:17;;;;;;;29.50;19.98;;;51.40;2227.20;;;;;;5073033;28;20020;-71
2022/02/06 04:20:43;;;;;;;26.15;17.75;;;51.50;2227.20;;;;;;5052730;28;20025;-72
2022/02/06 04:23:09;;;;;;;26.17;17.45;;;51.50;2227.20;;;;;;5070518;28;20151;-72
2022/02/06 04:25:36;;;;;;;32.92;17.17;;;51.50;2227.20;;;;;;5071894;28;20067;-71
2022/02/06 04:28:02;;;;;;;34.75;18.42;;;51.50;2227.20;;;;;;5072215;28;20120;-72
2022/02/06 04:30:28;;;;;;;28.75;16.55;;;51.50;2227.20;;;;;;5072743;28;20024;-72
2022/02/06 04:32:54;;;;;;;28.75;17.08;;;51.50;2227.20;;;;;;5072490;28;20486;-71
2022/02/06 04:35:28;;;;;;;33.72;19.92;;;51.60;2227.20;;;;;;5072322;28;20021;-72
2022/02/06 04:38:33;;;;;;;33.55;18.50;;;51.60;2227.20;;;;;;5072619;28;20025;-71
2022/02/06 05:29:06;;;;;;;29.23;17.52;;;51.70;2227.20;;;;;;4994027;28;20073;-71
2022/02/06 05:33:58;;;;;;;31.02;19.50;;;51.60;2227.20;;;;;;4994183;28;20054;-72
2022/02/06 05:36:24;;;;;;;35.97;18.90;;;51.50;2227.20;;;;;;4994304;28;20084;-71
2022/02/06 05:38:50;;;;;;;40.05;19.48;;;51.60;2227.20;;;;;;4993654;28;20038;-71
2022/02/06 05:41:15;;;;;;;32.47;18.88;;;51.70;2227.20;;;;;;4993963;28;20560;-71
2022/02/06 05:43:41;;;;;;;29.73;18.80;;;51.60;2227.20;;;;;;4993816;28;20093;-72
2022/02/06 05:46:07;;;;;;;28.33;18.90;;;51.70;2227.20;;;;;;4994025;28;20121;-71
2022/02/06 05:48:33;;;;;;;31.50;17.52;;;51.80;2227.20;;;;;;4993761;28;20125;-71
2022/02/06 05:50:59;;;;;;;29.85;19.40;;;51.70;2227.20;;;;;;4993076;28;20512;-71
2022/02/06 05:53:25;;;;;;;38.40;21.10;;;51.70;2227.20;;;;;;4993996;28;20026;-70
2022/02/06 05:55:51;;;;;;;34.97;20.38;;;51.70;2227.20;;;;;;4993286;28;20044;-70
2022/02/06 05:58:16;;;;;;;40.85;22.42;;;51.70;2227.20;;;;;;4993770;28;20065;-70
2022/02/06 06:00:42;;;;;;;46.58;25.10;;;51.70;2227.20;;;;;;4978422;28;20030;-71
2022/02/06 06:03:08;;;;;;;38.67;23.30;;;51.60;2227.20;;;;;;5074136;28;20037;-71
2022/02/06 06:05:35;;;;;;;41.10;22.83;;;51.70;2227.20;;;;;;5075127;28;20032;-71
2022/02/06 06:08:01;;;;;;;38.72;22.52;;;51.60;2227.20;;;;;;5073916;28;20020;-71
2022/02/06 06:10:27;;;;;;;38.42;22.75;;;51.70;2227.20;;;;;;5075059;28;20032;-71
2022/02/06 06:12:53;;;;;;;47.55;27.52;;;51.60;2227.20;;;;;;5075102;28;20028;-70
2022/02/06 06:15:19;;;;;;;79.68;40.40;;;51.60;2227.20;;;;;;5074910;28;20391;-71
2022/02/06 06:17:46;;;;;;;84.07;45.75;;;51.60;2227.20;;;;;;5073714;28;20107;-71
2022/02/06 06:20:16;;;;;;;84.25;46.22;;;51.70;2227.20;;;;;;5074905;28;20077;-71
2022/02/06 06:22:42;;;;;;;73.43;39.83;;;51.60;2227.20;;;;;;5074722;28;20024;-71
2022/02/06 06:25:10;;;;;;;77.22;38.95;;;51.80;2227.20;;;;;;5066766;28;20041;-70
2022/02/06 06:27:35;;;;;;;73.10;41.65;;;51.80;2227.20;;;;;;5054679;28;20540;-71
2022/02/06 06:30:02;;;;;;;61.20;35.90;;;51.90;2227.20;;;;;;5074313;28;20123;-70
2022/02/06 06:32:28;;;;;;;72.13;36.20;;;51.90;2227.20;;;;;;5072651;28;20016;-71
2022/02/06 06:34:55;;;;;;;57.22;29.95;;;51.90;2227.20;;;;;;5074335;28;20039;-71
2022/02/06 06:37:21;;;;;;;44.28;26.38;;;51.90;2227.20;;;;;;5074360;28;20064;-71
2022/02/06 06:39:48;;;;;;;47.03;25.80;;;52.00;2227.20;;;;;;5074355;28;20064;-70
2022/02/06 06:42:15;;;;;;;39.03;21.75;;;52.00;2227.20;;;;;;5073188;28;20029;-71
2022/02/06 06:44:42;;;;;;;31.70;19.50;;;52.00;2227.20;;;;;;5074286;28;20035;-71
2022/02/06 06:47:08;;;;;;;32.35;16.50;;;52.10;2227.20;;;;;;5073900;28;20074;-71
2022/02/06 06:49:35;;;;;;;30.50;16.88;;;52.10;2227.20;;;;;;5074149;28;20464;-71
2022/02/06 06:52:02;;;;;;;30.88;17.42;;;76.80;2227.20;;;;;;5074097;28;20475;-71
2022/02/06 06:54:38;;;;;;;29.15;17.98;;;76.80;2227.20;;;;;;5074196;28;20028;-70
2022/02/06 06:57:20;;;;;;;37.78;19.17;;;76.80;2227.20;;;;;;5074310;28;20025;-71
2022/02/06 07:02:27;;;;;;;39.28;19.20;;;77.00;2227.20;;;;;;5073979;28;20400;-71
2022/02/06 07:05:05;;;;;;;34.40;18.10;;;77.00;2227.20;;;;;;5074045;28;20104;-71
2022/02/06 07:07:32;;;;;;;47.17;21.15;;;77.10;2227.20;;;;;;5073967;28;20491;-71
2022/02/06 07:09:58;;;;;;;28.20;18.55;;;77.20;2227.20;;;;;;5073305;28;20078;-71
2022/02/06 07:12:24;;;;;;;42.25;24.00;;;77.30;2227.20;;;;;;5072653;28;20032;-72
2022/02/06 07:14:50;;;;;;;37.03;22.02;;;77.40;2227.20;;;;;;5073084;28;20052;-71
2022/02/06 07:17:17;;;;;;;30.45;21.15;;;77.50;2227.20;;;;;;5070629;28;20032;-71
2022/02/06 07:19:44;;;;;;;30.45;19.13;;;77.50;2227.20;;;;;;5069955;28;20029;-71
2022/02/06 07:22:12;;;;;;;36.17;22.20;;;77.60;2227.20;;;;;;5073100;28;20497;-71
2022/02/06 07:24:38;;;;;;;34.65;21.38;;;77.70;2227.20;;;;;;5071132;28;20049;-72
2022/02/06 07:27:16;;;;;;;32.75;19.80;;;102.40;2227.20;;;;;;5071081;28;20491;-72
2022/02/06 07:29:42;;;;;;;33.13;20.90;;;102.50;2227.20;;;;;;5072829;28;20029;-71
2022/02/06 07:32:08;;;;;;;41.10;20.73;;;102.60;2227.20;;;;;;5072039;28;20052;-71
2022/02/06 07:34:34;;;;;;;29.55;19.27;;;102.70;2227.20;;;;;;5071323;28;20052;-71
2022/02/06 07:37:00;;;;;;;30.52;19.60;;;102.80;2227.20;;;;;;5072266;28;20479;-72
2022/02/06 07:39:25;;;;;;;30.85;18.25;;;102.90;2227.20;;;;;;5072193;28;20115;-71
2022/02/06 07:41:51;;;;;;;25.83;18.25;;;103.00;2227.20;;;;;;5073477;28;20537;-72
2022/02/06 07:44:17;;;;;;;27.52;20.48;;;103.10;2227.20;;;;;;5072686;28;20445;-72
2022/02/06 07:46:46;;;;;;;31.08;18.92;;;103.20;2227.20;;;;;;5073247;28;20035;-72
2022/02/06 07:49:13;;;;;;;29.88;18.48;;;128.00;2252.80;;;;;;5073109;28;20605;-72
2022/02/06 07:51:39;;;;;;;28.10;18.63;;;128.00;2252.80;;;;;;5073297;28;20398;-72
2022/02/06 07:54:06;;;;;;;27.40;17.75;;;128.10;2252.80;;;;;;5073242;28;20520;-73
2022/02/06 07:56:32;;;;;;;28.92;19.33;;;128.20;2252.80;;;;;;5073224;28;20112;-72
2022/02/06 07:58:58;;;;;;;33.22;20.15;;;128.30;2252.80;;;;;;5072538;28;20025;-72
2022/02/06 08:01:25;;;;;;;41.22;24.60;;;128.50;2252.80;;;;;;5071704;28;20055;-73
2022/02/06 08:03:51;;;;;;;34.45;22.02;;;128.60;2252.80;;;;;;5069425;28;20028;-72
2022/02/06 08:06:17;;;;;;;42.15;26.05;;;128.70;2252.80;;;;;;5071161;28;20387;-72
2022/02/06 08:08:44;;;;;;;36.13;23.63;;;128.80;2252.80;;;;;;5063794;28;20028;-73
2022/02/06 08:11:15;;;;;;;39.25;24.58;;;128.90;2252.80;;;;;;5070774;28;20414;-73
2022/02/06 08:13:53;;;;;;;35.65;22.65;;;153.60;2252.80;;;;;;5071189;28;20104;-73
2022/02/06 08:16:19;;;;;;;34.55;23.05;;;153.70;2252.80;;;;;;5069601;28;20012;-72
2022/02/06 08:18:45;;;;;;;35.70;22.73;;;153.90;2252.80;;;;;;5065244;28;20067;-73
2022/02/06 08:21:12;;;;;;;31.25;21.63;;;154.10;2252.80;;;;;;5070661;28;20399;-73
2022/02/06 08:23:39;;;;;;;36.05;23.02;;;154.20;2252.80;;;;;;5065831;28;20082;-74
2022/02/06 08:26:06;;;;;;;32.28;22.38;;;154.30;2252.80;;;;;;5068543;28;20109;-72
2022/02/06 08:28:33;;;;;;;33.75;23.17;;;154.50;2252.80;;;;;;5068564;28;20040;-73
2022/02/06 08:31:02;;;;;;;29.85;20.75;;;179.20;2252.80;;;;;;5063624;28;20040;-73
2022/02/06 08:33:27;;;;;;;38.47;22.92;;;179.40;2252.80;;;;;;5070919;28;20428;-73
2022/02/06 08:35:54;;;;;;;34.83;22.08;;;179.50;2252.80;;;;;;5071472;28;20052;-73
2022/02/06 08:38:20;;;;;;;36.65;23.70;;;179.70;2252.80;;;;;;5068679;28;20023;-75
2022/02/06 08:40:46;;;;;;;35.20;21.35;;;179.90;2252.80;;;;;;5070228;28;20048;-75
2022/02/06 08:43:12;;;;;;;32.78;21.77;;;204.80;2252.80;;;;;;5069781;28;20029;-75
2022/02/06 08:45:38;;;;;;;27.85;19.17;;;204.90;2252.80;;;;;;5071367;28;20029;-74
2022/02/06 08:48:05;;;;;;;29.63;17.98;;;205.10;2252.80;;;;;;5069559;28;20037;-74
2022/02/06 08:50:31;;;;;;;26.17;17.67;;;205.30;2252.80;;;;;;5069012;28;20085;-74
2022/02/06 08:53:00;;;;;;;24.58;16.35;;;205.60;2252.80;;;;;;5071060;28;20055;-74
2022/02/06 08:55:27;;;;;;;22.40;16.30;;;205.70;2252.80;;;;;;5069880;28;20373;-74
2022/02/06 08:57:53;;;;;;;24.02;14.55;;;230.40;2252.80;;;;;;5065000;28;20028;-74
2022/02/06 09:00:21;;;;;;;20.35;13.85;;;230.60;2252.80;;;;;;5070964;28;20031;-75
2022/02/06 09:02:48;;;;;;;21.27;14.68;;;230.80;2252.80;;;;;;5071742;28;20027;-75
2022/02/06 09:05:14;;;;;;;22.27;13.82;;;231.10;2252.80;;;;;;5071040;28;20039;-76
2022/02/06 09:07:42;;;;;;;20.42;13.20;;;231.10;2252.80;;;;;;5071824;28;20502;-74
2022/02/06 09:10:09;;;;;;;22.13;13.38;;;231.20;2252.80;;;;;;5069423;28;20040;-75
2022/02/06 09:12:40;;;;;;;23.45;16.05;;;256.10;2252.80;;;;;;5071045;28;20476;-75
2022/02/06 09:15:06;;;;;;;18.48;11.90;;;256.30;2252.80;;;;;;5071686;28;20496;-74
2022/02/06 09:17:32;;;;;;;16.15;10.02;;;256.50;2252.80;;;;;;5069733;28;20028;-75
2022/02/06 09:19:58;;;;;;;15.02;9.70;;;256.50;2252.80;;;;;;5070180;28;20391;-75
2022/02/06 09:22:24;;;;;;;17.67;11.77;;;256.50;2227.20;;;;;;5071056;28;20036;-76
2022/02/06 09:24:49;;;;;;;20.88;11.82;;;256.80;2252.80;;;;;;5068721;28;20045;-75
2022/02/06 09:27:15;;;;;;;25.75;15.48;;;281.90;2227.20;;;;;;5069914;28;20036;-74
2022/02/06 09:29:42;;;;;;;26.83;16.52;;;282.20;2176.00;;;;;;5068855;28;20036;-75
2022/02/06 09:37:06;;;;;;;18.70;11.23;;;307.30;2022.40;;;;;;5076170;28;20025;-75
2022/02/06 09:39:37;;;;;;;22.48;11.10;;;307.50;2022.40;;;;;;5074573;28;20039;-75
2022/02/06 09:42:04;;;;;;;14.30;9.75;;;307.60;1945.60;;;;;;5077086;28;20032;-74
2022/02/06 09:44:30;;;;;;;12.70;9.60;;;307.70;1894.40;;;;;;5077014;28;20036;-75
2022/02/06 09:46:58;;;;;;;15.15;10.45;;;307.90;1843.20;;;;;;5077032;28;20032;-75
2022/02/06 09:49:26;;;;;;;13.43;9.68;;;308.00;1817.60;;;;;;5078381;28;20136;-75
2022/02/06 09:51:52;;;;;;;12.88;8.65;;;332.90;1817.60;;;;;;5072543;28;20067;-74
2022/02/06 09:54:20;;;;;;;19.58;10.63;;;332.80;1715.20;;;;;;5077035;28;20052;-74
2022/02/06 09:56:50;;;;;;;23.50;14.85;;;333.40;1715.20;;;;;;5076875;28;20025;-74
2022/02/06 09:59:20;;;;;;;17.52;10.10;;;333.50;1664.00;;;;;;5075304;28;20107;-75
2022/02/06 10:01:54;;;;;;;23.88;14.13;;;333.50;1612.80;;;;;;5072714;28;20352;-75
2022/02/06 10:04:21;;;;;;;32.40;19.65;;;358.70;1612.80;;;;;;5075735;28;20488;-75
2022/02/06 10:06:56;;;;;;;24.80;14.25;;;358.90;1561.60;;;;;;5077242;28;20077;-75
2022/02/06 10:09:27;;;;;;;21.40;12.05;;;359.00;1561.60;;;;;;5082426;28;20031;-75
2022/02/06 10:11:56;;;;;;;12.07;7.63;;;359.00;1536.00;;;;;;5086636;28;20028;-74
2022/02/06 10:14:23;;;;;;;12.27;7.80;;;358.90;1510.40;;;;;;5088452;28;20024;-75
2022/02/06 10:16:51;;;;;;;17.83;11.20;;;359.00;1510.40;;;;;;5085401;28;20043;-74
2022/02/06 10:19:17;;;;;;;21.27;11.27;;;384.10;1484.80;;;;;;5073062;28;20024;-75
2022/02/06 10:21:43;;;;;;;11.13;5.97;;;384.40;1459.20;;;;;;5077251;28;20054;-75
2022/02/06 10:24:20;;;;;;;16.55;7.07;;;384.20;1331.20;;;;;;5079797;28;20059;-75
2022/02/06 10:29:39;;;;;;;13.88;7.55;;;409.60;1356.80;;;;;;5074629;28;20558;-75
2022/02/06 10:32:06;;;;;;;10.88;6.88;;;384.90;1331.20;;;;;;5074605;28;20031;-75
2022/02/06 10:34:36;;;;;;;12.60;6.55;;;409.80;1331.20;;;;;;5075672;28;20497;-75
2022/02/06 10:37:23;;;;;;;10.10;6.50;;;409.80;1331.20;;;;;;5088227;28;20032;-75
2022/02/06 10:40:08;;;;;;;;;;;410.10;1331.20;;;;;;5080014;28;20016;-74
2022/02/06 10:42:41;;;;;;;16.48;8.95;;;410.20;1305.60;;;;;;5074839;28;19913;-75
2022/02/06 10:45:15;;;;;;;11.27;6.70;;;410.30;1305.60;;;;;;5077662;28;20082;-75
2022/02/06 10:47:41;;;;;;;14.13;7.50;;;435.30;1280.00;;;;;;5077839;28;20094;-75
2022/02/06 10:50:14;;;;;;;10.88;7.57;;;435.30;1254.40;;;;;;5074780;28;20035;-76
2022/02/06 10:52:41;;;;;;;17.65;10.52;;;410.40;1280.00;;;;;;5077513;28;20476;-75
2022/02/06 10:55:08;;;;;;;16.73;11.70;;;435.30;1280.00;;;;;;5077983;28;20020;-75
2022/02/06 10:57:35;;;;;;;21.13;11.50;;;435.20;1280.00;;;;;;5074432;28;20333;-75
2022/02/06 11:00:05;;;;;;;12.35;8.00;;;435.40;1280.00;;;;;;5078201;28;20020;-75
2022/02/06 11:02:57;;;;;;;12.70;7.28;;;435.60;1254.40;;;;;;5084563;28;20020;-75
2022/02/06 11:05:32;;;;;;;11.65;7.40;;;435.80;1228.80;;;;;;5077077;28;20040;-74
2022/02/06 11:08:01;;;;;;;13.68;9.38;;;436.10;1203.20;;;;;;5075546;28;20025;-75
2022/02/06 11:10:36;;;;;;;13.68;9.77;;;460.90;1203.20;;;;;;5080319;28;20383;-75
2022/02/06 11:13:04;;;;;;;12.60;8.88;;;436.10;1203.20;;;;;;5075139;28;20067;-74
2022/02/06 11:15:37;;;;;;;21.88;12.10;;;436.10;1228.80;;;;;;5082584;28;20042;-75
2022/02/06 11:18:10;;;;;;;14.20;9.95;;;460.90;1254.40;;;;;;5078987;28;20027;-74
2022/02/06 11:20:51;;;;;;;16.83;11.57;;;461.20;1254.40;;;;;;5077429;28;20025;-75
2022/02/06 11:23:16;;;;;;;31.52;19.23;;;460.90;1254.40;;;;;;5095458;28;20035;-75
2022/02/06 11:25:43;;;;;;;29.35;13.93;;;436.10;1228.80;;;;;;5078543;28;20044;-75
2022/02/06 11:28:12;;;;;;;17.42;10.20;;;461.20;1228.80;;;;;;5083351;28;20031;-75
2022/02/06 11:30:42;;;;;;;20.67;11.75;;;436.10;1228.80;;;;;;5075828;28;20048;-74
2022/02/06 11:33:08;;;;;;;31.40;18.75;;;461.50;1228.80;;;;;;5069419;28;20028;-75
2022/02/06 11:35:36;;;;;;;23.90;12.90;;;486.50;1228.80;;;;;;5077824;28;20081;-75
2022/02/06 11:44:47;;;;;;;24.55;16.08;;;486.60;1203.20;;;;;;5032118;28;20029;-76
2022/02/06 11:47:25;;;;;;;21.23;13.23;;;461.50;1228.80;;;;;;5029117;28;20087;-75
2022/02/06 11:49:56;;;;;;;19.88;14.82;;;461.60;1228.80;;;;;;5020798;28;20469;-74
2022/02/06 11:52:49;;;;;;;17.67;12.32;;;461.70;1228.80;;;;;;5031347;28;20033;-75
2022/02/06 11:55:33;;;;;;;22.13;14.85;;;461.70;1228.80;;;;;;5029190;28;20037;-75
2022/02/06 11:58:21;;;;;;;23.80;14.85;;;461.60;1254.40;;;;;;5008866;28;20615;-75
2022/02/06 12:01:07;;;;;;;20.08;13.70;;;486.50;1228.80;;;;;;5013601;28;20120;-75
2022/02/06 12:03:50;;;;;;;20.60;12.27;;;486.50;1228.80;;;;;;5028527;28;20053;-74
2022/02/06 12:06:18;;;;;;;23.17;13.95;;;486.50;1228.80;;;;;;5027155;28;20845;-75
2022/02/06 12:08:59;;;;;;;22.00;12.80;;;486.40;1203.20;;;;;;5023816;28;20052;-74
2022/02/06 12:11:29;;;;;;;18.63;12.88;;;461.30;1228.80;;;;;;5021280;28;20030;-75
2022/02/06 12:14:12;;;;;;;19.30;14.27;;;461.30;1254.40;;;;;;5024902;28;20034;-75
2022/02/06 12:16:51;;;;;;;18.60;13.73;;;461.40;1254.40;;;;;;5011545;28;20036;-76
2022/02/06 12:19:33;;;;;;;14.23;10.98;;;486.50;1203.20;;;;;;5025504;28;20033;-75
2022/02/06 12:22:44;;;;;;;26.83;16.25;;;461.60;1254.40;;;;;;5065473;28;20055;-75
2022/02/06 12:25:34;;;;;;;23.15;14.75;;;486.40;1254.40;;;;;;5077850;28;20051;-75
2022/02/06 12:28:17;;;;;;;18.48;14.48;;;486.50;1228.80;;;;;;5068638;28;20111;-75
2022/02/06 12:30:44;;;;;;;24.27;17.10;;;486.70;1228.80;;;;;;5070137;28;20048;-75
2022/02/06 12:33:29;;;;;;;19.70;13.45;;;486.60;1254.40;;;;;;5068787;28;20012;-75
2022/02/06 12:38:41;;;;;;;17.05;12.80;;;486.80;1254.40;;;;;;5071259;28;20023;-75
2022/02/06 12:41:16;;;;;;;16.58;10.50;;;461.60;1254.40;;;;;;5068404;28;20119;-74
2022/02/06 12:43:51;;;;;;;17.33;11.93;;;486.80;1228.80;;;;;;5070340;28;20016;-74
2022/02/06 12:46:16;;;;;;;20.35;13.32;;;461.70;1254.40;;;;;;5069009;28;20017;-73
2022/02/06 12:48:43;;;;;;;23.17;14.88;;;461.70;1254.40;;;;;;5069490;28;20024;-74
2022/02/06 12:51:08;;;;;;;19.15;12.68;;;486.70;1254.40;;;;;;5066473;28;20039;-74
2022/02/06 12:53:34;;;;;;;18.33;13.65;;;486.60;1228.80;;;;;;5067712;28;20407;-73
2022/02/06 12:56:00;;;;;;;14.50;10.77;;;486.60;1228.80;;;;;;5070138;28;20024;-73
2022/02/06 12:58:29;;;;;;;20.15;12.50;;;486.90;1203.20;;;;;;5069628;28;20052;-74
2022/02/06 13:00:56;;;;;;;17.33;10.65;;;487.00;1203.20;;;;;;5067838;28;20399;-74
2022/02/06 13:03:34;;;;;;;13.77;8.82;;;487.00;1177.60;;;;;;5069946;28;20032;-74
2022/02/06 13:06:13;;;;;;;12.98;8.48;;;486.70;1177.60;;;;;;5068750;28;20852;-74
2022/02/06 13:08:40;;;;;;;12.15;8.43;;;461.60;1228.80;;;;;;5070784;28;20028;-73
2022/02/06 13:11:11;;;;;;;14.57;10.48;;;461.00;1254.40;;;;;;5069212;28;20454;-74
2022/02/06 13:13:53;;;;;;;13.45;8.68;;;460.80;1280.00;;;;;;5068436;28;20028;-74
2022/02/06 13:19:01;;;;;;;22.10;13.20;;;435.40;1280.00;;;;;;5069818;28;20028;-73
2022/02/06 13:24:16;;;;;;;17.70;9.07;;;435.20;1280.00;;;;;;5069249;28;20433;-74
2022/02/06 13:30:14;;;;;;;22.30;11.75;;;435.30;1331.20;;;;;;4983956;28;19910;-73
2022/02/06 13:37:46;;;;;;;11.35;6.88;;;435.20;1331.20;;;;;;4987054;28;20018;-74
2022/02/06 13:40:19;;;;;;;12.77;7.25;;;410.40;1331.20;;;;;;4986664;28;20142;-74
2022/02/06 13:42:55;;;;;;;9.35;5.72;;;410.40;1331.20;;;;;;4984340;28;20065;-73
2022/02/06 13:45:24;;;;;;;16.83;9.00;;;435.40;1331.20;;;;;;4989126;28;20034;-74
2022/02/06 13:47:51;;;;;;;9.13;5.38;;;435.40;1305.60;;;;;;4988478;28;20037;-74
2022/02/06 13:50:17;;;;;;;12.77;8.25;;;435.20;1280.00;;;;;;4975857;28;20041;-74
2022/02/06 13:52:45;;;;;;;10.07;6.68;;;410.40;1305.60;;;;;;4993044;28;20121;-74
2022/02/06 13:55:13;;;;;;;9.85;5.60;;;410.30;1305.60;;;;;;4992422;28;20148;-74
2022/02/06 13:57:40;;;;;;;13.93;8.55;;;409.90;1331.20;;;;;;4990249;28;20046;-73
2022/02/06 14:00:17;;;;;;;9.93;6.40;;;384.90;1305.60;;;;;;4990634;28;20042;-73
2022/02/06 14:02:56;;;;;;;11.65;7.82;;;384.80;1305.60;;;;;;4987347;28;20035;-73
2022/02/06 14:05:25;;;;;;;12.75;6.68;;;384.80;1305.60;;;;;;4989792;28;20172;-73
2022/02/06 14:08:13;;;;;;;13.43;8.18;;;384.80;1331.20;;;;;;5074768;28;20103;-73
2022/02/06 14:11:00;;;;;;;12.40;6.43;;;384.40;1356.80;;;;;;5061071;28;20051;-73
2022/02/06 14:13:28;;;;;;;8.00;5.47;;;384.00;1382.40;;;;;;5071746;28;20107;-75
2022/02/06 14:16:14;;;;;;;9.73;6.18;;;384.10;1382.40;;;;;;5081139;28;20500;-74
2022/02/06 14:18:53;;;;;;;8.90;5.32;;;384.00;1382.40;;;;;;5079785;28;20078;-74
2022/02/06 14:21:19;;;;;;;10.27;5.80;;;359.30;1408.00;;;;;;5073151;28;20152;-74
2022/02/06 14:24:05;;;;;;;10.63;6.38;;;359.30;1408.00;;;;;;5073135;28;20024;-74
2022/02/06 14:26:31;;;;;;;16.07;7.80;;;359.20;1433.60;;;;;;5071127;28;20483;-74
2022/02/06 14:28:57;;;;;;;13.82;7.97;;;384.00;1459.20;;;;;;5073311;28;20712;-73
2022/02/06 14:31:28;;;;;;;13.32;8.02;;;359.30;1459.20;;;;;;5072951;28;20055;-74
2022/02/06 14:34:16;;;;;;;13.35;8.82;;;359.10;1484.80;;;;;;5057835;28;20411;-74
2022/02/06 14:37:12;;;;;;;14.90;8.52;;;359.00;1536.00;;;;;;5076233;28;20070;-74
2022/02/06 14:40:03;;;;;;;16.30;8.55;;;358.90;1561.60;;;;;;5056268;28;20418;-73
2022/02/06 14:42:30;;;;;;;16.33;8.68;;;358.80;1561.60;;;;;;5070244;28;20036;-74
2022/02/06 14:45:10;;;;;;;15.48;9.55;;;358.80;1587.20;;;;;;5074415;28;20499;-74
2022/02/06 14:47:36;;;;;;;14.77;8.55;;;358.80;1587.20;;;;;;5072349;28;20028;-74
2022/02/06 14:50:17;;;;;;;16.77;8.98;;;358.60;1612.80;;;;;;5058664;28;20498;-74
2022/02/06 14:52:45;;;;;;;12.88;7.28;;;358.60;1638.40;;;;;;5073503;28;20044;-73
2022/02/06 14:55:12;;;;;;;20.33;10.27;;;358.60;1612.80;;;;;;5070582;28;20597;-77
2022/02/06 14:57:38;;;;;;;19.08;9.38;;;358.50;1638.40;;;;;;5069956;28;20471;-73
2022/02/06 15:00:07;;;;;;;13.27;8.13;;;358.40;1638.40;;;;;;5074841;28;20039;-74
2022/02/06 15:02:33;;;;;;;12.25;9.55;;;333.60;1638.40;;;;;;5088219;28;20029;-74